createdAt,value
2019-05-25T00:01:57.598Z,100506.16
2019-05-25T00:04:26.047Z,100499.41
2019-05-25T00:06:54.448Z,100505.08
2019-05-25T00:09:22.854Z,100508.81
2019-05-25T00:11:51.248Z,100509.52
2019-05-25T00:14:19.651Z,100513.14
2019-05-25T00:16:48.067Z,100507.34
2019-05-25T00:19:16.506Z,100514.23
2019-05-25T00:21:44.899Z,100510.00
2019-05-25T00:24:13.325Z,100503.07
2019-05-25T00:26:41.718Z,100504.89
2019-05-25T00:29:10.138Z,100506.61
2019-05-25T00:31:38.546Z,100507.05
2019-05-25T00:34:06.954Z,100509.76
2019-05-25T00:36:35.348Z,100509.47
2019-05-25T00:39:05.426Z,100509.22
2019-05-25T00:41:33.825Z,100514.34
2019-05-25T00:44:02.265Z,100515.06
2019-05-25T00:46:30.646Z,100513.44
2019-05-25T00:48:59.084Z,100519.53
2019-05-25T00:51:27.487Z,100516.57
2019-05-25T00:53:55.899Z,100531.97
2019-05-25T00:56:24.307Z,100524.34
2019-05-25T00:58:52.719Z,100530.89
2019-05-25T01:01:24.347Z,100530.59
2019-05-25T01:03:51.260Z,100531.59
2019-05-25T01:06:19.693Z,100535.27
2019-05-25T01:08:48.114Z,100534.13
2019-05-25T01:11:16.550Z,100536.06
2019-05-25T01:13:45.061Z,100545.25
2019-05-25T01:16:13.464Z,100539.69
2019-05-25T01:18:41.873Z,100538.16
2019-05-25T01:21:10.375Z,100545.25
2019-05-25T01:23:38.789Z,100546.31
2019-05-25T01:26:07.196Z,100545.81
2019-05-25T01:28:37.785Z,100536.39
2019-05-25T01:31:05.754Z,100546.16
2019-05-25T01:33:34.152Z,100543.42
2019-05-25T01:36:02.562Z,100548.78
2019-05-25T01:38:30.956Z,100546.03
2019-05-25T01:40:59.456Z,100545.04
2019-05-25T01:43:27.853Z,100550.01
2019-05-25T01:45:56.269Z,100541.96
2019-05-25T01:48:24.667Z,100547.61
2019-05-25T01:50:53.078Z,100548.59
2019-05-25T01:53:21.479Z,100541.38
2019-05-25T01:55:49.889Z,100542.84
2019-05-25T01:58:18.290Z,100545.50
2019-05-25T02:00:46.712Z,100547.21
2019-05-25T02:03:15.114Z,100550.35
2019-05-25T02:05:43.806Z,100546.23
2019-05-25T02:08:12.185Z,100544.28
2019-05-25T02:10:40.592Z,100545.15
2019-05-25T02:13:08.990Z,100544.31
2019-05-25T02:15:37.396Z,100544.55
2019-05-25T02:18:05.802Z,100544.42
2019-05-25T02:20:34.222Z,100541.90
2019-05-25T02:23:02.728Z,100543.79
2019-05-25T02:25:31.212Z,100543.20
2019-05-25T02:27:59.607Z,100540.19
2019-05-25T02:30:28.482Z,100542.11
2019-05-25T02:32:57.041Z,100544.66
2019-05-25T02:35:27.593Z,100540.82
2019-05-25T02:37:57.037Z,100545.50
2019-05-25T02:40:25.846Z,100550.42
2019-05-25T02:42:54.479Z,100549.78
2019-05-25T02:45:23.052Z,100548.51
2019-05-25T02:47:51.631Z,100542.60
2019-05-25T02:50:20.480Z,100543.58
2019-05-25T02:52:49.044Z,100551.20
2019-05-25T02:55:33.027Z,100551.82
2019-05-25T02:57:47.911Z,100555.08
2019-05-25T03:00:18.108Z,100549.52
2019-05-25T03:02:47.026Z,100550.46
2019-05-25T03:05:15.939Z,100550.46
2019-05-25T03:07:46.980Z,100552.34
2019-05-25T03:10:15.713Z,100555.83
2019-05-25T03:12:44.773Z,100552.63
2019-05-25T03:15:13.872Z,100565.16
2019-05-25T03:17:42.257Z,100558.33
2019-05-25T03:20:10.998Z,100561.37
2019-05-25T03:22:39.399Z,100556.21
2019-05-25T03:25:08.051Z,100561.12
2019-05-25T03:27:36.451Z,100557.83
2019-05-25T03:30:07.468Z,100554.06
2019-05-25T03:32:36.076Z,100559.27
2019-05-25T03:35:06.629Z,100563.59
2019-05-25T03:37:35.099Z,100566.27
2019-05-25T03:40:05.285Z,100563.20
2019-05-25T03:42:33.829Z,100566.44
2019-05-25T03:45:02.244Z,100568.89
2019-05-25T03:47:30.645Z,100562.02
2019-05-25T03:49:59.052Z,100560.70
2019-05-25T03:52:27.450Z,100561.58
2019-05-25T03:54:55.859Z,100562.55
2019-05-25T03:57:24.262Z,100567.73
2019-05-25T03:59:52.684Z,100569.89
2019-05-25T04:02:21.088Z,100575.16
2019-05-25T04:04:49.485Z,100580.61
2019-05-25T04:07:17.892Z,100572.30
2019-05-25T04:09:46.280Z,100580.47
2019-05-25T04:12:14.694Z,100581.00
2019-05-25T04:14:43.103Z,100578.20
2019-05-25T04:17:11.514Z,100583.65
2019-05-25T04:19:39.908Z,100582.08
2019-05-25T04:22:08.313Z,100577.96
2019-05-25T04:24:36.719Z,100580.90
2019-05-25T04:27:05.218Z,100577.16
2019-05-25T04:29:33.617Z,100577.75
2019-05-25T04:32:02.026Z,100583.06
2019-05-25T04:34:30.422Z,100584.05
2019-05-25T04:36:58.829Z,100584.42
2019-05-25T04:39:27.224Z,100581.52
2019-05-25T04:41:55.632Z,100590.11
2019-05-25T04:44:24.037Z,100589.86
2019-05-25T04:46:52.440Z,100596.98
2019-05-25T04:49:20.844Z,100594.82
2019-05-25T04:51:49.248Z,100593.97
2019-05-25T04:54:17.657Z,100596.26
2019-05-25T04:56:46.062Z,100601.22
2019-05-25T04:59:14.461Z,100603.88
2019-05-25T05:01:42.875Z,100608.59
2019-05-25T05:04:11.276Z,100612.20
2019-05-25T05:06:39.689Z,100616.09
2019-05-25T05:09:08.155Z,100616.44
2019-05-25T05:11:36.608Z,100618.72
2019-05-25T05:14:05.157Z,100623.81
2019-05-25T05:16:33.579Z,100624.91
2019-05-25T05:19:01.979Z,100627.63
2019-05-25T05:21:30.379Z,100626.94
2019-05-25T05:23:58.785Z,100633.42
2019-05-25T05:26:27.205Z,100631.71
2019-05-25T05:28:55.597Z,100631.20
2019-05-25T05:31:24.115Z,100629.78
2019-05-25T05:33:52.581Z,100632.09
2019-05-25T05:36:22.424Z,100634.02
2019-05-25T05:38:51.703Z,100626.30
2019-05-25T05:41:21.915Z,100626.83
2019-05-25T05:43:52.871Z,100632.70
2019-05-25T05:46:21.849Z,100633.13
2019-05-25T05:48:51.808Z,100633.23
2019-05-25T05:51:23.117Z,100636.38
2019-05-25T05:53:55.108Z,100632.21
2019-05-25T05:56:23.510Z,100635.77
2019-05-25T05:58:51.942Z,100637.63
2019-05-25T06:01:20.343Z,100633.84
2019-05-25T06:03:48.745Z,100634.80
2019-05-25T06:06:17.149Z,100635.42
2019-05-25T06:08:45.551Z,100630.17
2019-05-25T06:11:14.196Z,100641.17
2019-05-25T06:13:42.601Z,100645.45
2019-05-25T06:16:10.995Z,100647.39
2019-05-25T06:18:39.429Z,100641.65
2019-05-25T06:21:07.803Z,100647.70
2019-05-25T06:23:36.253Z,100642.08
2019-05-25T06:26:04.773Z,100644.48
2019-05-25T06:28:33.172Z,100646.42
2019-05-25T06:31:01.589Z,100652.91
2019-05-25T06:33:29.983Z,100659.64
2019-05-25T06:35:58.388Z,100657.44
2019-05-25T06:38:26.801Z,100661.89
2019-05-25T06:40:55.204Z,100661.41
2019-05-25T06:43:23.603Z,100665.97
2019-05-25T06:45:52.004Z,100667.48
2019-05-25T06:48:20.495Z,100664.11
2019-05-25T06:50:48.901Z,100666.59
2019-05-25T06:53:17.413Z,100667.04
2019-05-25T06:55:45.814Z,100668.27
2019-05-25T06:58:14.991Z,100674.80
2019-05-25T07:00:43.886Z,100675.38
2019-05-25T07:03:12.297Z,100670.66
2019-05-25T07:05:40.718Z,100668.44
2019-05-25T07:08:09.231Z,100670.61
2019-05-25T07:10:37.646Z,100673.10
2019-05-25T07:13:06.133Z,100679.42
2019-05-25T07:15:34.548Z,100678.43
2019-05-25T07:18:02.951Z,100682.45
2019-05-25T07:20:31.529Z,100679.55
2019-05-25T07:22:59.932Z,100679.95
2019-05-25T07:25:28.700Z,100682.78
2019-05-25T07:28:00.150Z,100686.89
2019-05-25T07:30:27.241Z,100687.02
2019-05-25T07:32:55.800Z,100691.44
2019-05-25T07:35:24.117Z,100680.29
2019-05-25T07:37:52.526Z,100684.44
2019-05-25T07:40:20.921Z,100684.28
2019-05-25T07:42:49.330Z,100684.24
2019-05-25T07:45:18.007Z,100682.09
2019-05-25T07:47:46.401Z,100686.30
2019-05-25T07:50:16.044Z,100688.89
2019-05-25T07:52:44.451Z,100693.41
2019-05-25T07:55:13.010Z,100685.75
2019-05-25T07:57:41.416Z,100686.98
2019-05-25T08:00:10.267Z,100685.69
2019-05-25T08:02:38.672Z,100690.62
2019-05-25T08:05:08.209Z,100697.56
2019-05-25T08:07:36.596Z,100697.30
2019-05-25T08:10:05.977Z,100706.15
2019-05-25T08:12:34.365Z,100703.67
2019-05-25T08:15:02.776Z,100718.13
2019-05-25T08:17:31.173Z,100719.39
2019-05-25T08:19:59.588Z,100721.31
2019-05-25T08:22:28.066Z,100719.69
2019-05-25T08:24:56.483Z,100720.34
2019-05-25T08:27:24.888Z,100721.07
2019-05-25T08:29:53.306Z,100721.16
2019-05-25T08:32:21.706Z,100723.16
2019-05-25T08:34:50.127Z,100724.35
2019-05-25T08:37:18.531Z,100729.56
2019-05-25T08:39:46.938Z,100726.38
2019-05-25T08:42:15.405Z,100730.12
2019-05-25T08:44:43.825Z,100731.28
2019-05-25T08:47:12.227Z,100730.69
2019-05-25T08:49:40.637Z,100732.74
2019-05-25T08:52:09.037Z,100733.91
2019-05-25T08:54:37.450Z,100741.20
2019-05-25T08:57:05.860Z,100734.45
2019-05-25T08:59:34.278Z,100737.22
2019-05-25T09:02:02.690Z,100728.50
2019-05-25T09:04:31.192Z,100734.54
2019-05-25T09:06:59.597Z,100735.70
2019-05-25T09:09:28.008Z,100740.12
2019-05-25T09:11:56.742Z,100739.84
2019-05-25T09:14:25.148Z,100745.89
2019-05-25T09:16:53.552Z,100739.84
2019-05-25T09:19:21.966Z,100749.70
2019-05-25T09:22:02.095Z,100748.73
2019-05-25T09:24:20.535Z,100751.95
2019-05-25T09:26:48.948Z,100750.77
2019-05-25T09:29:17.356Z,100749.44
2019-05-25T09:31:45.763Z,100755.39
2019-05-25T09:34:14.165Z,100757.73
2019-05-25T09:36:42.577Z,100764.01
2019-05-25T09:39:10.982Z,100767.71
2019-05-25T09:41:39.391Z,100767.42
2019-05-25T09:44:07.789Z,100768.33
2019-05-25T09:46:36.213Z,100762.92
2019-05-25T09:49:04.681Z,100763.75
2019-05-25T09:51:33.084Z,100768.25
2019-05-25T09:54:01.486Z,100763.67
2019-05-25T09:56:29.903Z,100766.45
2019-05-25T09:58:58.304Z,100767.70
2019-05-25T10:01:26.725Z,100766.03
2019-05-25T10:03:56.715Z,100767.09
2019-05-25T10:06:25.316Z,100766.77
2019-05-25T10:08:53.731Z,100771.48
2019-05-25T10:11:22.157Z,100771.80
2019-05-25T10:13:50.589Z,100771.56
2019-05-25T10:16:19.099Z,100768.67
2019-05-25T10:18:47.451Z,100769.45
2019-05-25T10:21:15.839Z,100769.79
2019-05-25T10:23:44.243Z,100768.94
2019-05-25T10:26:12.662Z,100770.39
2019-05-25T10:28:41.060Z,100775.02
2019-05-25T10:31:09.472Z,100773.05
2019-05-25T10:33:37.910Z,100773.91
2019-05-25T10:36:06.324Z,100771.19
2019-05-25T10:38:34.716Z,100774.47
2019-05-25T10:41:03.125Z,100775.46
2019-05-25T10:43:31.531Z,100769.66
2019-05-25T10:45:59.943Z,100763.63
2019-05-25T10:48:28.350Z,100765.30
2019-05-25T10:50:56.754Z,100759.34
2019-05-25T10:53:25.197Z,100764.55
2019-05-25T10:55:53.601Z,100767.06
2019-05-25T10:58:22.017Z,100769.20
2019-05-25T11:00:50.988Z,100764.92
2019-05-25T11:03:19.402Z,100762.22
2019-05-25T11:05:47.823Z,100767.46
2019-05-25T11:08:16.210Z,100767.19
2019-05-25T11:10:44.630Z,100769.19
2019-05-25T11:13:13.154Z,100765.11
2019-05-25T11:15:41.583Z,100758.91
2019-05-25T11:18:10.005Z,100753.62
2019-05-25T11:20:38.411Z,100761.89
2019-05-25T11:23:06.828Z,100762.02
2019-05-25T11:25:35.239Z,100754.20
2019-05-25T11:28:03.640Z,100758.35
2019-05-25T11:30:32.055Z,100760.88
2019-05-25T11:33:00.477Z,100756.86
2019-05-25T11:35:28.879Z,100761.72
2019-05-25T11:37:57.427Z,100754.86
2019-05-25T11:40:26.360Z,100754.14
2019-05-25T11:42:54.763Z,100754.50
2019-05-25T11:45:23.376Z,100763.56
2019-05-25T11:47:51.839Z,100759.25
2019-05-25T11:50:20.309Z,100760.09
2019-05-25T11:52:48.863Z,100758.91
2019-05-25T11:55:17.800Z,100760.20
2019-05-25T11:57:46.214Z,100764.00
2019-05-25T12:00:25.029Z,100761.45
2019-05-25T12:02:46.979Z,100762.84
2019-05-25T12:05:16.017Z,100760.67
2019-05-25T12:07:45.130Z,100752.78
2019-05-25T12:10:14.122Z,100756.53
2019-05-25T12:12:42.538Z,100749.90
2019-05-25T12:15:11.169Z,100752.22
2019-05-25T12:17:39.577Z,100752.86
2019-05-25T12:20:08.719Z,100755.23
2019-05-25T12:22:37.241Z,100749.36
2019-05-25T12:25:06.785Z,100751.53
2019-05-25T12:27:35.225Z,100755.34
2019-05-25T12:30:07.246Z,100743.58
2019-05-25T12:32:35.673Z,100745.11
2019-05-25T12:35:06.388Z,100743.27
2019-05-25T12:37:34.791Z,100737.23
2019-05-25T12:40:04.269Z,100742.07
2019-05-25T12:42:32.764Z,100744.75
2019-05-25T12:45:01.231Z,100749.23
2019-05-25T12:47:29.698Z,100747.09
2019-05-25T12:49:58.097Z,100750.67
2019-05-25T12:52:26.505Z,100742.47
2019-05-25T12:54:54.912Z,100746.11
2019-05-25T12:57:24.216Z,100748.75
2019-05-25T12:59:52.745Z,100750.18
2019-05-25T13:02:21.161Z,100751.91
2019-05-25T13:04:49.607Z,100749.14
2019-05-25T13:07:18.093Z,100750.14
2019-05-25T13:09:46.480Z,100746.61
2019-05-25T13:12:14.894Z,100739.02
2019-05-25T13:14:43.313Z,100739.97
2019-05-25T13:17:11.731Z,100744.72
2019-05-25T13:19:40.137Z,100740.09
2019-05-25T13:22:08.544Z,100737.22
2019-05-25T13:24:37.022Z,100737.66
2019-05-25T13:27:05.500Z,100738.58
2019-05-25T13:29:33.903Z,100742.95
2019-05-25T13:32:02.324Z,100749.25
2019-05-25T13:34:30.784Z,100749.27
2019-05-25T13:37:01.659Z,100753.06
2019-05-25T13:39:29.332Z,100752.02
2019-05-25T13:41:57.734Z,100747.77
2019-05-25T13:44:26.156Z,100750.30
2019-05-25T13:46:54.579Z,100745.31
2019-05-25T13:49:23.004Z,100744.41
2019-05-25T13:51:51.419Z,100747.61
2019-05-25T13:54:19.853Z,100748.80
2019-05-25T13:56:48.297Z,100748.16
2019-05-25T13:59:16.812Z,100750.60
2019-05-25T14:01:45.350Z,100750.56
2019-05-25T14:04:13.805Z,100740.59
2019-05-25T14:06:42.300Z,100739.01
2019-05-25T14:09:10.708Z,100744.32
2019-05-25T14:11:39.122Z,100745.08
2019-05-25T14:14:07.596Z,100751.61
2019-05-25T14:16:36.026Z,100745.00
2019-05-25T14:19:04.498Z,100740.96
2019-05-25T14:21:32.921Z,100739.55
2019-05-25T14:24:01.438Z,100739.66
2019-05-25T14:26:29.867Z,100737.52
2019-05-25T14:28:58.387Z,100742.33
2019-05-25T14:31:26.798Z,100737.55
2019-05-25T14:33:55.206Z,100734.27
2019-05-25T14:36:23.628Z,100741.15
2019-05-25T14:38:52.033Z,100746.05
2019-05-25T14:41:20.498Z,100741.13
2019-05-25T14:43:48.904Z,100740.39
2019-05-25T14:46:27.296Z,100733.33
2019-05-25T14:48:47.471Z,100740.49
2019-05-25T14:51:15.901Z,100736.48
2019-05-25T14:53:44.295Z,100740.56
2019-05-25T14:56:12.700Z,100734.56
2019-05-25T14:58:41.140Z,100731.56
2019-05-25T15:01:09.540Z,100730.70
2019-05-25T15:03:37.964Z,100734.88
2019-05-25T15:06:06.407Z,100731.52
2019-05-25T15:08:34.803Z,100733.65
2019-05-25T15:11:03.213Z,100731.61
2019-05-25T15:13:31.625Z,100727.70
2019-05-25T15:16:00.036Z,100726.96
2019-05-25T15:18:28.526Z,100730.22
2019-05-25T15:20:56.919Z,100724.75
2019-05-25T15:23:25.421Z,100725.53
2019-05-25T15:25:53.816Z,100729.80
2019-05-25T15:28:22.232Z,100714.25
2019-05-25T15:30:50.645Z,100719.58
2019-05-25T15:33:19.498Z,100726.00
2019-05-25T15:35:47.933Z,100729.63
2019-05-25T15:38:16.355Z,100727.77
2019-05-25T15:40:44.739Z,100724.87
2019-05-25T15:43:13.156Z,100725.09
2019-05-25T15:45:41.553Z,100728.45
2019-05-25T15:48:09.982Z,100725.61
2019-05-25T15:50:38.387Z,100715.75
2019-05-25T15:53:06.801Z,100715.61
2019-05-25T15:55:35.195Z,100720.56
2019-05-25T15:58:03.600Z,100716.22
2019-05-25T16:00:46.285Z,100720.83
2019-05-25T16:03:15.740Z,100716.29
2019-05-25T16:05:47.385Z,100710.11
2019-05-25T16:08:14.279Z,100713.42
2019-05-25T16:10:42.705Z,100715.71
2019-05-25T16:13:11.127Z,100719.86
2019-05-25T16:15:39.540Z,100718.39
2019-05-25T16:18:08.008Z,100713.72
2019-05-25T16:20:36.373Z,100710.41
2019-05-25T16:23:04.844Z,100704.80
2019-05-25T16:25:33.789Z,100702.98
2019-05-25T16:28:02.219Z,100703.98
2019-05-25T16:30:31.552Z,100711.55
2019-05-25T16:33:11.423Z,100706.00
2019-05-25T16:35:30.241Z,100703.64
2019-05-25T16:37:58.830Z,100706.14
2019-05-25T16:40:27.374Z,100703.97
2019-05-25T16:42:55.769Z,100705.25
2019-05-25T16:45:24.175Z,100701.67
2019-05-25T16:47:52.586Z,100701.57
2019-05-25T16:50:21.379Z,100699.40
2019-05-25T16:52:49.797Z,100701.11
2019-05-25T16:55:18.622Z,100704.09
2019-05-25T16:57:47.024Z,100701.51
2019-05-25T17:00:18.521Z,100707.36
2019-05-25T17:02:46.994Z,100695.72
2019-05-25T17:05:15.631Z,100701.51
2019-05-25T17:07:44.034Z,100701.97
2019-05-25T17:10:12.552Z,100700.91
2019-05-25T17:12:40.949Z,100698.91
2019-05-25T17:15:09.698Z,100704.93
2019-05-25T17:17:38.103Z,100704.86
2019-05-25T17:20:06.746Z,100706.56
2019-05-25T17:22:35.139Z,100700.21
2019-05-25T17:25:04.320Z,100705.44
2019-05-25T17:27:32.722Z,100699.88
2019-05-25T17:30:01.156Z,100704.84
2019-05-25T17:32:29.787Z,100704.93
2019-05-25T17:34:58.200Z,100698.47
2019-05-25T17:37:26.600Z,100706.83
2019-05-25T17:39:55.019Z,100706.67
2019-05-25T17:42:23.444Z,100703.69
2019-05-25T17:44:51.870Z,100703.91
2019-05-25T17:47:20.286Z,100698.11
2019-05-25T17:49:48.677Z,100703.49
2019-05-25T17:52:17.093Z,100697.77
2019-05-25T17:54:45.506Z,100695.64
2019-05-25T17:57:13.911Z,100694.23
2019-05-25T17:59:42.305Z,100696.06
2019-05-25T18:02:10.730Z,100697.05
2019-05-25T18:04:39.140Z,100701.55
2019-05-25T18:07:07.548Z,100692.13
2019-05-25T18:09:35.990Z,100700.98
2019-05-25T18:12:04.840Z,100699.89
2019-05-25T18:14:33.244Z,100700.65
2019-05-25T18:17:01.755Z,100696.09
2019-05-25T18:19:30.158Z,100704.86
2019-05-25T18:21:59.178Z,100705.99
2019-05-25T18:24:27.652Z,100709.63
2019-05-25T18:26:56.069Z,100714.52
2019-05-25T18:29:25.424Z,100708.58
2019-05-25T18:31:53.914Z,100703.57
2019-05-25T18:34:22.698Z,100701.34
2019-05-25T18:36:51.157Z,100702.03
2019-05-25T18:39:19.554Z,100699.00
2019-05-25T18:41:47.966Z,100702.38
2019-05-25T18:44:16.362Z,100696.76
2019-05-25T18:46:44.766Z,100707.70
2019-05-25T18:49:13.208Z,100703.92
2019-05-25T18:51:41.586Z,100710.13
2019-05-25T18:54:09.982Z,100709.07
2019-05-25T18:56:38.393Z,100714.63
2019-05-25T18:59:06.789Z,100715.23
2019-05-25T19:01:35.281Z,100721.18
2019-05-25T19:04:03.683Z,100719.40
2019-05-25T19:06:32.104Z,100723.34
2019-05-25T19:09:00.506Z,100722.70
2019-05-25T19:11:28.911Z,100719.51
2019-05-25T19:13:57.307Z,100722.17
2019-05-25T19:16:25.712Z,100713.61
2019-05-25T19:18:54.120Z,100717.38
2019-05-25T19:21:22.526Z,100720.99
2019-05-25T19:23:51.029Z,100716.53
2019-05-25T19:26:19.412Z,100720.19
2019-05-25T19:28:47.826Z,100725.78
2019-05-25T19:31:16.230Z,100733.05
2019-05-25T19:33:44.624Z,100738.27
2019-05-25T19:36:13.029Z,100735.40
2019-05-25T19:38:41.550Z,100735.89
2019-05-25T19:41:09.951Z,100746.16
2019-05-25T19:43:38.386Z,100745.72
2019-05-25T19:46:06.876Z,100742.02
2019-05-25T19:48:35.372Z,100738.64
2019-05-25T19:51:03.785Z,100737.89
2019-05-25T19:53:32.203Z,100738.05
2019-05-25T19:56:00.699Z,100737.33
2019-05-25T19:58:29.109Z,100736.62
2019-05-25T20:00:57.550Z,100734.67
2019-05-25T20:03:25.970Z,100737.22
2019-05-25T20:05:54.421Z,100739.27
2019-05-25T20:08:22.824Z,100737.46
2019-05-25T20:10:55.193Z,100735.78
2019-05-25T20:13:21.413Z,100736.38
2019-05-25T20:15:49.812Z,100734.92
2019-05-25T20:18:18.228Z,100735.76
2019-05-25T20:20:46.639Z,100736.59
2019-05-25T20:23:15.053Z,100734.50
2019-05-25T20:25:43.462Z,100736.56
2019-05-25T20:28:11.864Z,100743.91
2019-05-25T20:30:40.269Z,100738.45
2019-05-25T20:33:08.693Z,100741.92
2019-05-25T20:35:37.085Z,100739.36
2019-05-25T20:38:05.499Z,100735.60
2019-05-25T20:40:33.903Z,100742.70
2019-05-25T20:43:02.366Z,100740.87
2019-05-25T20:45:30.703Z,100737.84
2019-05-25T20:47:59.117Z,100732.52
2019-05-25T20:50:27.533Z,100727.94
2019-05-25T20:52:55.986Z,100722.88
2019-05-25T20:55:24.379Z,100723.61
2019-05-25T20:57:52.805Z,100723.91
2019-05-25T21:00:24.151Z,100724.10
2019-05-25T21:03:05.256Z,100733.88
2019-05-25T21:05:21.894Z,100733.91
2019-05-25T21:07:50.318Z,100734.75
2019-05-25T21:10:18.716Z,100737.69
2019-05-25T21:12:47.120Z,100737.88
2019-05-25T21:15:15.592Z,100733.52
2019-05-25T21:17:44.004Z,100721.45
2019-05-25T21:20:13.046Z,100727.56
2019-05-25T21:22:41.455Z,100725.51
2019-05-25T21:25:10.704Z,100725.37
2019-05-25T21:27:39.108Z,100727.76
2019-05-25T21:30:08.897Z,100725.91
2019-05-25T21:32:37.312Z,100724.99
2019-05-25T21:35:06.848Z,100718.80
2019-05-25T21:37:35.268Z,100722.30
2019-05-25T21:40:05.113Z,100724.10
2019-05-25T21:42:33.515Z,100722.66
2019-05-25T21:45:01.929Z,100719.28
2019-05-25T21:47:30.320Z,100717.78
2019-05-25T21:49:58.737Z,100713.33
2019-05-25T21:52:27.140Z,100716.47
2019-05-25T21:54:55.550Z,100710.98
2019-05-25T21:57:23.947Z,100709.88
2019-05-25T21:59:52.354Z,100702.67
2019-05-25T22:02:20.749Z,100703.95
2019-05-25T22:04:49.161Z,100707.99
2019-05-25T22:07:17.566Z,100706.12
2019-05-25T22:09:46.018Z,100701.98
2019-05-25T22:12:14.375Z,100699.98
2019-05-25T22:14:42.785Z,100694.33
2019-05-25T22:17:11.196Z,100697.63
2019-05-25T22:19:39.606Z,100695.17
2019-05-25T22:22:08.068Z,100700.42
2019-05-25T22:24:36.472Z,100696.84
2019-05-25T22:27:04.871Z,100694.95
2019-05-25T22:29:33.288Z,100695.25
2019-05-25T22:32:01.698Z,100686.20
2019-05-25T22:34:30.103Z,100684.31
2019-05-25T22:36:58.684Z,100688.30
2019-05-25T22:39:27.088Z,100685.17
2019-05-25T22:41:55.492Z,100682.16
2019-05-25T22:44:24.094Z,100679.31
2019-05-25T22:46:52.656Z,100673.55
2019-05-25T22:49:21.077Z,100674.59
2019-05-25T22:51:49.482Z,100674.02
2019-05-25T22:54:18.842Z,100672.43
2019-05-25T22:56:47.468Z,100666.50
2019-05-25T22:59:15.883Z,100669.91
2019-05-25T23:01:44.286Z,100662.62
2019-05-25T23:04:12.702Z,100660.56
2019-05-25T23:06:56.659Z,100656.14
2019-05-25T23:09:11.234Z,100657.74
2019-05-25T23:11:39.632Z,100654.23
2019-05-25T23:14:09.911Z,100653.58
2019-05-25T23:16:38.402Z,100642.80
2019-05-25T23:19:06.816Z,100645.09
2019-05-25T23:21:35.213Z,100642.33
2019-05-25T23:24:03.674Z,100640.28
2019-05-25T23:26:32.086Z,100643.85
2019-05-25T23:29:00.504Z,100637.45
2019-05-25T23:31:28.904Z,100633.67
2019-05-25T23:33:57.323Z,100640.09
2019-05-25T23:36:25.719Z,100633.84
2019-05-25T23:38:54.130Z,100626.32
2019-05-25T23:41:22.537Z,100625.96
2019-05-25T23:43:50.940Z,100628.69
2019-05-25T23:46:19.348Z,100624.45
2019-05-25T23:48:47.765Z,100626.05
2019-05-25T23:51:16.207Z,100624.09
2019-05-25T23:53:44.613Z,100621.55
2019-05-25T23:56:13.292Z,100617.69
2019-05-25T23:58:41.719Z,100609.85
